createdAt,value
2023-04-18T00:01:23.826Z,12.13
2023-04-18T00:03:51.160Z,11.23
2023-04-18T00:06:18.167Z,10.90
2023-04-18T00:08:44.841Z,11.03
2023-04-18T00:11:11.486Z,10.80
2023-04-18T00:13:39.345Z,11.02
2023-04-18T00:16:07.717Z,10.40
2023-04-18T00:18:36.731Z,10.43
2023-04-18T00:21:04.248Z,11.10
2023-04-18T00:23:31.080Z,9.77
2023-04-18T00:25:57.706Z,9.90
2023-04-18T00:28:24.427Z,9.50
2023-04-18T00:30:51.278Z,9.70
2023-04-18T00:33:18.465Z,9.70
2023-04-18T00:35:45.187Z,9.88
2023-04-18T00:38:11.814Z,8.82
2023-04-18T00:40:38.810Z,9.07
2023-04-18T00:43:07.733Z,8.75
2023-04-18T00:45:34.590Z,8.50
2023-04-18T00:48:01.661Z,9.10
2023-04-18T00:50:28.357Z,10.00
2023-04-18T00:52:56.783Z,9.20
2023-04-18T00:55:24.451Z,9.20
2023-04-18T00:57:51.876Z,9.27
2023-04-18T01:00:18.815Z,8.95
2023-04-18T01:02:47.110Z,9.18
2023-04-18T01:05:13.867Z,8.27
2023-04-18T01:07:43.302Z,8.45
2023-04-18T01:10:10.750Z,8.23
2023-04-18T01:12:37.674Z,8.88
2023-04-18T01:15:08.125Z,8.32
2023-04-18T01:17:35.452Z,7.80
2023-04-18T01:20:04.897Z,7.97
2023-04-18T01:22:33.924Z,8.00
2023-04-18T01:25:00.669Z,7.95
2023-04-18T01:27:27.341Z,7.75
2023-04-18T01:29:54.093Z,7.30
2023-04-18T01:32:22.447Z,7.18
2023-04-18T01:34:49.287Z,7.00
2023-04-18T01:37:15.972Z,7.03
2023-04-18T01:39:42.567Z,7.05
2023-04-18T01:42:09.192Z,7.38
2023-04-18T01:44:35.831Z,7.18
2023-04-18T01:47:02.788Z,7.20
2023-04-18T01:49:29.580Z,7.05
2023-04-18T01:51:56.181Z,6.50
2023-04-18T01:54:22.799Z,6.60
2023-04-18T01:56:49.409Z,6.40
2023-04-18T01:59:16.040Z,6.57
2023-04-18T02:01:43.311Z,6.80
2023-04-18T02:04:10.080Z,6.22
2023-04-18T02:06:36.719Z,6.68
2023-04-18T02:09:03.385Z,6.60
2023-04-18T02:11:30.284Z,6.30
2023-04-18T02:13:57.411Z,5.82
2023-04-18T02:16:23.978Z,6.68
2023-04-18T02:18:52.847Z,6.70
2023-04-18T02:21:19.546Z,6.85
2023-04-18T02:23:46.187Z,6.77
2023-04-18T02:26:12.811Z,6.60
2023-04-18T02:28:39.618Z,6.55
2023-04-18T02:31:07.338Z,6.25
2023-04-18T02:33:33.978Z,6.22
2023-04-18T02:36:01.619Z,6.60
2023-04-18T02:38:28.279Z,6.68
2023-04-18T02:40:54.852Z,6.68
2023-04-18T02:43:21.554Z,6.60
2023-04-18T02:45:48.245Z,6.43
2023-04-18T02:48:15.045Z,6.83
2023-04-18T02:50:41.741Z,7.13
2023-04-18T02:53:08.432Z,6.85
2023-04-18T02:55:35.008Z,6.75
2023-04-18T02:58:01.597Z,7.10
2023-04-18T03:00:28.380Z,7.03
2023-04-18T03:02:55.217Z,7.18
2023-04-18T03:05:22.216Z,7.15
2023-04-18T03:07:48.870Z,6.50
2023-04-18T03:10:16.260Z,7.40
2023-04-18T03:12:42.902Z,7.07
2023-04-18T03:15:09.962Z,7.35
2023-04-18T03:17:36.763Z,7.18
2023-04-18T03:20:03.599Z,7.00
2023-04-18T03:22:30.297Z,6.95
2023-04-18T03:24:56.896Z,7.03
2023-04-18T03:27:23.489Z,7.25
2023-04-18T03:29:50.143Z,6.90
2023-04-18T03:32:17.333Z,7.05
2023-04-18T03:34:44.122Z,7.25
2023-04-18T03:37:10.816Z,7.63
2023-04-18T03:39:37.455Z,7.55
2023-04-18T03:42:04.031Z,7.63
2023-04-18T03:44:31.164Z,7.57
2023-04-18T03:46:57.784Z,7.90
2023-04-18T03:49:24.373Z,8.20
2023-04-18T03:51:51.764Z,8.10
2023-04-18T03:54:53.409Z,8.20
2023-04-18T03:57:20.196Z,8.27
2023-04-18T03:59:47.911Z,8.18
2023-04-18T04:02:14.690Z,8.17
2023-04-18T04:04:41.465Z,7.70
2023-04-18T04:07:08.090Z,7.57
2023-04-18T04:09:34.668Z,7.50
2023-04-18T04:12:02.212Z,8.40
2023-04-18T04:14:28.813Z,7.83
2023-04-18T04:16:55.509Z,8.50
2023-04-18T04:19:22.128Z,8.68
2023-04-18T04:21:48.789Z,8.23
2023-04-18T04:24:15.930Z,8.77
2023-04-18T04:26:43.059Z,8.70
2023-04-18T04:29:10.684Z,8.52
2023-04-18T04:31:37.416Z,7.90
2023-04-18T04:34:04.932Z,8.05
2023-04-18T04:36:33.299Z,8.13
2023-04-18T04:38:59.935Z,8.23
2023-04-18T04:41:27.672Z,8.90
2023-04-18T04:43:54.396Z,7.95
2023-04-18T04:46:21.323Z,8.40
2023-04-18T04:48:49.589Z,9.02
2023-04-18T04:51:16.234Z,8.60
2023-04-18T04:53:42.786Z,8.27
2023-04-18T04:56:09.447Z,9.32
2023-04-18T04:58:36.821Z,9.18
2023-04-18T05:01:03.527Z,8.82
2023-04-18T05:03:30.380Z,7.87
2023-04-18T05:05:57.099Z,8.48
2023-04-18T05:08:23.775Z,9.13
2023-04-18T05:10:50.982Z,7.97
2023-04-18T05:13:17.663Z,8.73
2023-04-18T05:15:44.387Z,8.70
2023-04-18T05:18:11.153Z,9.15
2023-04-18T05:20:37.839Z,8.85
2023-04-18T05:23:04.471Z,8.55
2023-04-18T05:25:32.189Z,8.07
2023-04-18T05:28:00.631Z,8.47
2023-04-18T05:30:27.552Z,8.57
2023-04-18T05:32:54.108Z,8.90
2023-04-18T05:35:20.788Z,8.60
2023-04-18T05:37:47.515Z,8.77
2023-04-18T05:40:14.344Z,8.53
2023-04-18T05:42:41.014Z,8.95
2023-04-18T05:45:08.256Z,8.70
2023-04-18T05:47:34.874Z,8.73
2023-04-18T05:50:01.606Z,8.45
2023-04-18T05:52:28.584Z,9.33
2023-04-18T05:54:55.374Z,8.93
2023-04-18T05:57:22.020Z,8.52
2023-04-18T05:59:48.628Z,9.30
2023-04-18T06:02:15.478Z,9.70
2023-04-18T06:04:42.951Z,8.90
2023-04-18T06:07:09.995Z,8.95
2023-04-18T06:09:36.721Z,8.93
2023-04-18T06:12:03.735Z,8.52
2023-04-18T06:14:30.517Z,8.80
2023-04-18T06:16:57.253Z,8.87
2023-04-18T06:19:23.850Z,9.40
2023-04-18T06:21:50.731Z,9.52
2023-04-18T06:24:17.468Z,8.63
2023-04-18T06:26:44.098Z,9.52
2023-04-18T06:29:11.208Z,8.20
2023-04-18T06:31:37.862Z,8.60
2023-04-18T06:34:04.510Z,8.93
2023-04-18T06:36:31.414Z,8.80
2023-04-18T06:38:58.035Z,8.95
2023-04-18T06:41:24.711Z,8.80
2023-04-18T06:44:02.750Z,8.98
2023-04-18T06:46:30.798Z,8.35
2023-04-18T06:48:57.588Z,8.60
2023-04-18T06:51:24.219Z,7.88
2023-04-18T06:53:52.880Z,8.40
2023-04-18T06:56:20.512Z,8.40
2023-04-18T06:58:47.881Z,8.30
2023-04-18T07:01:14.544Z,8.63
2023-04-18T07:03:41.262Z,8.20
2023-04-18T07:06:10.387Z,8.03
2023-04-18T07:08:37.182Z,8.23
2023-04-18T07:11:03.884Z,7.80
2023-04-18T07:13:30.461Z,7.50
2023-04-18T07:15:57.480Z,8.10
2023-04-18T07:18:36.728Z,8.00
2023-04-18T07:21:07.532Z,8.27
2023-04-18T07:23:34.878Z,8.43
2023-04-18T07:26:02.721Z,7.72
2023-04-18T07:28:31.034Z,7.65
2023-04-18T07:30:58.171Z,7.30
2023-04-18T07:33:25.148Z,8.00
2023-04-18T07:35:53.086Z,7.75
2023-04-18T07:38:19.942Z,7.70
2023-04-18T07:40:46.596Z,7.65
2023-04-18T07:43:13.400Z,7.37
2023-04-18T07:45:43.257Z,7.65
2023-04-18T07:48:11.154Z,7.28
2023-04-18T07:50:38.166Z,7.28
2023-04-18T07:53:04.868Z,6.82
2023-04-18T07:55:31.893Z,6.93
2023-04-18T07:57:58.566Z,6.53
2023-04-18T08:00:25.234Z,6.25
2023-04-18T08:02:52.175Z,7.30
2023-04-18T08:05:19.966Z,6.47
2023-04-18T08:07:46.612Z,7.00
2023-04-18T08:10:13.481Z,6.55
2023-04-18T08:12:40.720Z,6.57
2023-04-18T08:15:08.205Z,6.15
2023-04-18T08:17:34.879Z,6.60
2023-04-18T08:20:04.933Z,6.57
2023-04-18T08:22:31.683Z,6.45
2023-04-18T08:25:05.165Z,6.30
2023-04-18T08:27:32.984Z,6.50
2023-04-18T08:30:00.453Z,6.05
2023-04-18T08:32:28.606Z,5.70
2023-04-18T08:34:56.081Z,5.65
2023-04-18T08:37:22.721Z,5.68
2023-04-18T08:39:49.478Z,5.68
2023-04-18T08:42:19.758Z,5.53
2023-04-18T08:44:47.782Z,5.47
2023-04-18T08:47:14.566Z,5.95
2023-04-18T08:49:42.462Z,6.03
2023-04-18T08:52:14.245Z,6.20
2023-04-18T08:54:46.658Z,6.13
2023-04-18T08:57:26.704Z,5.60
2023-04-18T08:59:54.032Z,5.20
2023-04-18T09:02:28.481Z,5.65
2023-04-18T09:04:55.777Z,5.22
2023-04-18T09:07:29.411Z,5.60
2023-04-18T09:09:57.628Z,5.50
2023-04-18T09:12:26.314Z,6.05
2023-04-18T09:14:56.513Z,5.35
2023-04-18T09:17:35.489Z,5.38
2023-04-18T09:20:04.967Z,5.47
2023-04-18T09:23:11.610Z,5.57
2023-04-18T09:25:48.942Z,6.05
2023-04-18T09:28:27.742Z,5.80
2023-04-18T09:31:09.559Z,5.70
2023-04-18T09:33:36.990Z,5.97
2023-04-18T09:36:21.437Z,5.70
2023-04-18T09:38:56.011Z,6.25
2023-04-18T09:41:23.694Z,5.50
2023-04-18T09:43:50.600Z,6.00
2023-04-18T09:46:22.423Z,5.50
2023-04-18T09:48:49.280Z,5.63
2023-04-18T09:51:16.666Z,5.68
2023-04-18T09:53:44.806Z,6.00
2023-04-18T09:56:20.217Z,6.03
2023-04-18T09:58:50.656Z,6.05
2023-04-18T10:01:17.492Z,5.90
2023-04-18T10:03:51.775Z,6.00
2023-04-18T10:06:18.580Z,6.13
2023-04-18T10:08:45.972Z,6.20
2023-04-18T10:11:12.716Z,5.40
2023-04-18T10:13:43.075Z,5.20
2023-04-18T10:16:10.969Z,4.82
2023-04-18T10:18:37.780Z,5.38
2023-04-18T10:21:05.173Z,5.95
2023-04-18T10:23:34.760Z,5.28
2023-04-18T10:26:02.772Z,6.20
2023-04-18T10:28:57.168Z,5.75
2023-04-18T10:31:28.559Z,6.47
2023-04-18T10:36:28.458Z,5.95
2023-04-18T10:39:19.185Z,5.73
2023-04-18T10:41:51.164Z,5.70
2023-04-18T10:44:19.912Z,5.65
2023-04-18T10:46:52.349Z,6.43
2023-04-18T10:49:37.287Z,5.18
2023-04-18T10:52:05.993Z,5.30
2023-04-18T10:54:38.859Z,4.68
2023-04-18T10:57:08.664Z,4.68
2023-04-18T10:59:38.888Z,4.55
2023-04-18T11:02:11.998Z,5.03
2023-04-18T11:04:39.329Z,4.83
2023-04-18T11:07:06.044Z,5.15
2023-04-18T11:09:32.620Z,4.93
2023-04-18T11:12:11.226Z,5.35
2023-04-18T11:14:41.793Z,5.30
2023-04-18T11:17:26.710Z,5.30
2023-04-18T11:20:08.597Z,5.05
2023-04-18T11:22:54.890Z,5.45
2023-04-18T11:25:25.938Z,6.18
2023-04-18T11:27:52.758Z,6.13
2023-04-18T11:30:19.523Z,6.03
2023-04-18T11:32:46.502Z,5.68
2023-04-18T11:35:14.614Z,6.15
2023-04-18T11:37:47.196Z,5.97
2023-04-18T11:40:14.246Z,6.63
2023-04-18T11:42:41.638Z,6.80
2023-04-18T11:45:15.581Z,6.45
2023-04-18T11:47:43.306Z,6.78
2023-04-18T11:50:11.914Z,7.30
2023-04-18T11:52:40.868Z,7.15
2023-04-18T11:55:25.065Z,7.23
2023-04-18T11:57:56.481Z,6.03
2023-04-18T12:00:37.429Z,6.20
2023-04-18T12:03:07.985Z,6.88
2023-04-18T12:05:37.155Z,7.68
2023-04-18T12:08:11.801Z,7.30
2023-04-18T12:10:46.210Z,7.40
2023-04-18T12:13:19.633Z,7.50
2023-04-18T12:15:47.160Z,7.35
2023-04-18T12:18:17.932Z,7.85
2023-04-18T12:20:54.030Z,8.07
2023-04-18T12:23:42.251Z,7.53
2023-04-18T12:26:14.211Z,7.45
2023-04-18T12:28:46.082Z,7.88
2023-04-18T12:31:12.850Z,7.45
2023-04-18T12:33:39.596Z,8.27
2023-04-18T12:36:08.363Z,8.23
2023-04-18T12:38:35.863Z,8.38
2023-04-18T12:41:02.670Z,9.02
2023-04-18T12:43:29.288Z,8.20
2023-04-18T12:45:55.876Z,8.63
2023-04-18T12:48:22.552Z,7.97
2023-04-18T12:50:49.207Z,8.48
2023-04-18T12:53:15.834Z,8.52
2023-04-18T12:55:42.517Z,8.70
2023-04-18T12:58:09.189Z,8.27
2023-04-18T13:00:36.073Z,7.88
2023-04-18T13:03:02.934Z,7.90
2023-04-18T13:05:32.955Z,9.00
2023-04-18T13:10:31.166Z,8.53
2023-04-18T13:12:57.838Z,9.15
2023-04-18T13:15:24.753Z,9.50
2023-04-18T13:17:51.570Z,9.20
2023-04-18T13:20:18.654Z,9.45
2023-04-18T13:22:45.568Z,8.83
2023-04-18T13:25:12.294Z,9.85
2023-04-18T13:27:41.761Z,10.20
2023-04-18T13:30:10.377Z,9.45
2023-04-18T13:32:38.938Z,9.68
2023-04-18T13:35:08.304Z,10.00
2023-04-18T13:37:34.939Z,9.82
2023-04-18T13:40:01.579Z,9.65
2023-04-18T13:42:28.271Z,9.50
2023-04-18T13:44:54.962Z,9.88
2023-04-18T13:47:21.773Z,10.50
2023-04-18T13:49:48.398Z,10.57
2023-04-18T13:52:15.190Z,9.85
2023-04-18T13:54:41.887Z,9.93
2023-04-18T13:57:14.686Z,9.63
2023-04-18T13:59:41.365Z,9.77
2023-04-18T14:02:09.458Z,10.32
2023-04-18T14:04:36.724Z,10.25
2023-04-18T14:07:06.065Z,10.00
2023-04-18T14:09:33.155Z,9.95
2023-04-18T14:11:59.869Z,9.67
2023-04-18T14:14:26.500Z,9.77
2023-04-18T14:16:53.869Z,9.38
2023-04-18T14:19:20.626Z,9.70
2023-04-18T14:21:48.015Z,9.48
2023-04-18T14:24:14.826Z,10.07
2023-04-18T14:26:41.615Z,9.27
2023-04-18T14:29:08.258Z,9.32
2023-04-18T14:31:35.148Z,9.82
2023-04-18T14:34:01.978Z,9.38
2023-04-18T14:36:28.599Z,9.63
2023-04-18T14:38:55.218Z,9.73
2023-04-18T14:41:21.868Z,9.90
2023-04-18T14:43:48.720Z,9.38
2023-04-18T14:46:19.385Z,9.68
2023-04-18T14:48:49.740Z,8.87
2023-04-18T14:51:16.936Z,9.25
2023-04-18T14:53:44.853Z,9.18
2023-04-18T14:56:11.710Z,9.00
2023-04-18T14:58:38.496Z,9.13
2023-04-18T15:01:05.726Z,9.50
2023-04-18T15:03:33.184Z,9.73
2023-04-18T15:06:00.233Z,9.95
2023-04-18T15:08:27.464Z,9.38
2023-04-18T15:10:54.047Z,9.07
2023-04-18T15:13:20.746Z,8.60
2023-04-18T15:15:54.654Z,9.32
2023-04-18T15:18:21.392Z,8.32
2023-04-18T15:20:48.044Z,8.27
2023-04-18T15:23:15.832Z,9.07
2023-04-18T15:25:44.055Z,8.43
2023-04-18T15:28:11.369Z,7.85
2023-04-18T15:30:38.840Z,8.10
2023-04-18T15:33:05.719Z,9.23
2023-04-18T15:35:32.366Z,8.82
2023-04-18T15:37:59.099Z,8.67
2023-04-18T15:40:26.211Z,8.75
2023-04-18T15:42:54.274Z,8.60
2023-04-18T15:45:21.738Z,8.73
2023-04-18T15:47:48.462Z,8.75
2023-04-18T15:50:16.262Z,9.17
2023-04-18T15:52:43.751Z,8.23
2023-04-18T15:55:12.274Z,8.80
2023-04-18T15:57:39.929Z,8.95
2023-04-18T16:00:19.504Z,8.55
2023-04-18T16:02:46.703Z,7.60
2023-04-18T16:05:15.392Z,8.02
2023-04-18T16:07:43.128Z,8.40
2023-04-18T16:10:10.854Z,8.65
2023-04-18T16:12:38.547Z,7.63
2023-04-18T16:15:06.864Z,8.30
2023-04-18T16:17:33.588Z,8.05
2023-04-18T16:20:00.864Z,7.57
2023-04-18T16:22:27.492Z,7.85
2023-04-18T16:24:54.123Z,7.95
2023-04-18T16:27:20.782Z,7.83
2023-04-18T16:29:47.500Z,8.15
2023-04-18T16:32:14.212Z,7.85
2023-04-18T16:34:40.885Z,8.10
2023-04-18T16:37:07.518Z,7.63
2023-04-18T16:39:34.210Z,7.50
2023-04-18T16:42:01.353Z,7.30
2023-04-18T16:44:28.016Z,7.43
2023-04-18T16:46:54.772Z,7.20
2023-04-18T16:49:21.753Z,7.45
2023-04-18T16:51:48.886Z,7.40
2023-04-18T16:54:16.053Z,7.68
2023-04-18T16:56:44.573Z,7.97
2023-04-18T16:59:11.340Z,7.85
2023-04-18T17:01:38.075Z,7.50
2023-04-18T17:04:05.175Z,6.80
2023-04-18T17:06:32.548Z,6.88
2023-04-18T17:08:59.311Z,7.22
